createdAt,value
2018-06-17T05:02:57.095Z,59.06
2018-06-17T05:08:01.182Z,58.80
2018-06-17T05:13:04.518Z,58.67
2018-06-17T05:18:07.847Z,58.49
2018-06-17T05:23:11.177Z,58.11
2018-06-17T05:28:15.286Z,58.30
2018-06-17T05:33:18.651Z,58.28
2018-06-17T05:38:22.288Z,57.85
2018-06-17T05:43:25.634Z,58.01
2018-06-17T05:48:28.989Z,57.54
2018-06-17T05:53:32.351Z,57.25
2018-06-17T05:58:36.051Z,57.28
2018-06-17T06:03:39.383Z,57.09
2018-06-17T06:08:53.318Z,57.01
2018-06-17T06:13:56.646Z,56.68
2018-06-17T06:18:59.987Z,56.04
2018-06-17T06:24:03.321Z,55.97
2018-06-17T06:29:06.668Z,56.64
2018-06-17T06:34:10.007Z,56.29
2018-06-17T06:39:19.532Z,55.73
2018-06-17T06:44:22.861Z,55.06
2018-06-17T06:49:41.490Z,55.49
2018-06-17T06:54:44.846Z,55.20
2018-06-17T06:59:48.163Z,54.52
2018-06-17T07:22:07.187Z,52.87
2018-06-17T07:27:46.591Z,52.85
2018-06-17T07:32:49.918Z,52.85
2018-06-17T07:37:53.375Z,52.75
2018-06-17T07:42:56.843Z,53.28
2018-06-17T07:48:00.223Z,52.77
2018-06-17T07:53:11.413Z,52.90
2018-06-17T07:58:14.784Z,52.52
2018-06-17T08:03:18.450Z,52.50
2018-06-17T08:08:21.959Z,52.17
2018-06-17T08:13:25.678Z,51.93
2018-06-17T08:18:29.042Z,51.81
2018-06-17T08:23:33.147Z,52.47
2018-06-17T08:28:36.662Z,52.37
2018-06-17T08:33:39.998Z,52.84
2018-06-17T08:38:43.350Z,52.08
2018-06-17T08:43:46.679Z,52.69
2018-06-17T08:48:50.036Z,53.21
2018-06-17T08:53:54.142Z,53.55
2018-06-17T08:58:57.487Z,53.28
2018-06-17T09:04:01.582Z,52.57
2018-06-17T09:09:17.166Z,51.42
2018-06-17T09:14:20.525Z,51.76
2018-06-17T09:19:24.683Z,52.17
2018-06-17T09:24:27.988Z,52.78
2018-06-17T09:29:31.335Z,53.76
2018-06-17T09:34:34.667Z,53.86
2018-06-17T09:45:20.656Z,54.21
2018-06-17T09:50:33.313Z,55.42
2018-06-17T09:55:36.882Z,57.82
2018-06-17T10:00:42.224Z,57.93
2018-06-17T10:05:45.560Z,58.52
2018-06-17T10:10:49.669Z,59.27
2018-06-17T10:15:53.167Z,59.46
2018-06-17T10:20:56.683Z,59.67
2018-06-17T10:26:00.035Z,59.97
2018-06-17T10:31:04.159Z,60.46
2018-06-17T10:36:07.498Z,60.66
2018-06-17T10:41:10.838Z,60.99
2018-06-17T10:46:14.170Z,61.89
2018-06-17T10:51:17.511Z,63.25
2018-06-17T10:56:20.970Z,64.61
2018-06-17T11:01:24.306Z,62.18
2018-06-17T11:06:27.747Z,63.79
2018-06-17T11:11:31.095Z,63.69
2018-06-17T11:16:34.423Z,62.97
2018-06-17T11:21:37.949Z,62.39
2018-06-17T11:26:41.395Z,63.72
2018-06-17T11:31:44.784Z,62.92
2018-06-17T11:36:48.224Z,61.08
2018-06-17T11:41:51.569Z,61.39
2018-06-17T11:46:55.684Z,60.88
2018-06-17T11:51:59.126Z,59.72
2018-06-17T11:57:02.471Z,59.07
2018-06-17T12:02:05.924Z,59.52
2018-06-17T12:07:09.330Z,58.84
2018-06-17T12:12:13.711Z,57.83
2018-06-17T12:17:17.077Z,57.35
2018-06-17T12:22:20.420Z,57.16
2018-06-17T12:27:23.782Z,56.39
2018-06-17T12:32:27.237Z,56.08
2018-06-17T12:37:30.683Z,54.70
2018-06-17T12:42:34.054Z,54.52
2018-06-17T12:47:37.402Z,52.25
2018-06-17T12:52:41.063Z,50.94
2018-06-17T12:57:44.717Z,51.25
2018-06-17T13:02:48.539Z,52.26
2018-06-17T13:07:51.919Z,51.44
2018-06-17T13:12:55.276Z,50.85
2018-06-17T13:17:58.607Z,51.44
2018-06-17T13:23:01.956Z,49.58
2018-06-17T13:28:05.295Z,49.76
2018-06-17T13:33:08.660Z,49.17
2018-06-17T13:38:15.344Z,47.53
2018-06-17T13:43:18.697Z,46.74
2018-06-17T13:48:22.034Z,45.50
2018-06-17T13:53:25.390Z,44.27
2018-06-17T13:58:29.035Z,43.55
2018-06-17T14:03:32.622Z,42.29
2018-06-17T14:08:36.152Z,43.82
2018-06-17T14:13:39.706Z,43.64
2018-06-17T14:18:43.397Z,42.79
2018-06-17T14:23:46.900Z,42.21
2018-06-17T14:28:50.717Z,42.55
2018-06-17T14:33:54.358Z,42.46
2018-06-17T14:38:58.153Z,41.44
2018-06-17T14:55:03.957Z,40.15
2018-06-17T15:00:07.287Z,41.23
2018-06-17T15:05:11.407Z,44.22
2018-06-17T15:10:14.770Z,40.82
2018-06-17T15:15:18.150Z,42.13
2018-06-17T15:20:21.500Z,46.38
2018-06-17T15:25:24.892Z,46.64
2018-06-17T15:30:28.211Z,45.21
2018-06-17T15:40:59.554Z,39.19
2018-06-17T15:46:02.874Z,40.55
2018-06-17T15:51:06.311Z,42.07
2018-06-17T15:56:09.639Z,40.42
2018-06-17T16:01:12.993Z,39.85
2018-06-17T16:06:20.478Z,39.33
2018-06-17T16:11:24.072Z,39.84
2018-06-17T16:22:00.679Z,41.45
2018-06-17T16:27:04.269Z,43.10
2018-06-17T16:32:07.745Z,44.98
2018-06-17T16:37:11.150Z,45.08
2018-06-17T16:42:15.373Z,44.65
2018-06-17T16:47:20.090Z,44.58
2018-06-17T16:57:58.462Z,43.68
2018-06-17T17:03:02.688Z,48.45
2018-06-17T17:08:06.262Z,50.08
2018-06-17T17:13:11.225Z,54.92
2018-06-17T17:18:14.690Z,63.44
2018-06-17T17:23:19.318Z,62.38
2018-06-17T17:28:23.037Z,60.93
2018-06-17T17:39:02.105Z,62.34
2018-06-17T17:44:07.148Z,62.11
2018-06-17T17:49:10.702Z,61.17
2018-06-17T17:54:14.856Z,60.99
2018-06-17T17:59:19.253Z,62.62
2018-06-17T18:04:22.922Z,61.34
2018-06-17T18:09:27.467Z,61.08
2018-06-17T18:14:31.856Z,60.73
2018-06-17T18:19:35.692Z,65.39
2018-06-17T18:24:39.059Z,75.57
2018-06-17T18:35:29.770Z,79.72
2018-06-17T18:40:33.099Z,81.23
2018-06-17T18:45:36.435Z,81.94
2018-06-17T18:50:43.935Z,82.93
2018-06-17T18:55:47.319Z,80.19
2018-06-17T19:01:00.972Z,80.59
2018-06-17T19:06:04.308Z,79.34
2018-06-17T19:16:54.992Z,82.10
2018-06-17T19:22:00.502Z,80.93
2018-06-17T19:27:04.526Z,81.11
2018-06-17T19:32:07.852Z,81.46
2018-06-17T19:37:11.306Z,81.26
2018-06-17T19:42:15.417Z,81.66
2018-06-17T19:47:18.763Z,81.62
2018-06-17T19:58:02.252Z,81.95
2018-06-17T20:03:06.363Z,82.08
2018-06-17T20:08:09.861Z,81.68
2018-06-17T20:13:13.287Z,81.32
2018-06-17T20:18:16.677Z,80.92
2018-06-17T20:23:20.007Z,82.19
2018-06-17T20:28:23.355Z,82.29
2018-06-17T20:44:34.586Z,82.50
2018-06-17T20:49:37.933Z,82.31
2018-06-17T20:54:41.263Z,82.10
2018-06-17T20:59:44.621Z,82.32
2018-06-17T21:04:47.947Z,82.35
2018-06-17T21:09:51.336Z,81.86
2018-06-17T21:14:54.632Z,82.04
2018-06-17T21:25:40.790Z,82.05
2018-06-17T21:30:44.167Z,81.91
2018-06-17T21:35:47.463Z,81.84
2018-06-17T21:40:52.498Z,81.93
2018-06-17T21:45:55.843Z,81.97
2018-06-17T21:50:59.939Z,82.12
2018-06-17T21:56:03.276Z,82.03
2018-06-17T22:01:07.379Z,81.86
2018-06-17T22:06:10.708Z,82.07
2018-06-17T22:16:57.750Z,82.59
2018-06-17T22:22:01.084Z,82.16
2018-06-17T22:27:04.411Z,82.17
